sensor_id;sensor_type;location;lat;lon;timestamp;P1;durP1;ratioP1;P2;durP2;ratioP2
10497;SDS011;5296;51.060;13.750;2022-11-15T00:00:39;28.75;;;24.67;;
10497;SDS011;5296;51.060;13.750;2022-11-15T00:06:02;27.98;;;24.77;;
10497;SDS011;5296;51.060;13.750;2022-11-15T00:11:23;28.48;;;25.08;;
10497;SDS011;5296;51.060;13.750;2022-11-15T00:16:44;31.33;;;26.17;;
10497;SDS011;5296;51.060;13.750;2022-11-15T00:28:52;27.65;;;24.63;;
10497;SDS011;5296;51.060;13.750;2022-11-15T00:34:13;28.83;;;25.67;;
10497;SDS011;5296;51.060;13.750;2022-11-15T00:39:33;30.40;;;26.05;;
10497;SDS011;5296;51.060;13.750;2022-11-15T00:44:53;29.33;;;24.77;;
10497;SDS011;5296;51.060;13.750;2022-11-15T00:50:13;29.75;;;25.75;;
10497;SDS011;5296;51.060;13.750;2022-11-15T00:55:34;29.67;;;25.85;;
10497;SDS011;5296;51.060;13.750;2022-11-15T01:00:54;30.85;;;25.90;;
10497;SDS011;5296;51.060;13.750;2022-11-15T01:06:14;31.88;;;27.08;;
10497;SDS011;5296;51.060;13.750;2022-11-15T01:11:34;32.00;;;25.50;;
10497;SDS011;5296;51.060;13.750;2022-11-15T01:16:55;31.63;;;27.65;;
10497;SDS011;5296;51.060;13.750;2022-11-15T01:22:15;30.42;;;26.40;;
10497;SDS011;5296;51.060;13.750;2022-11-15T01:27:35;31.08;;;27.10;;
10497;SDS011;5296;51.060;13.750;2022-11-15T01:32:56;32.75;;;27.80;;
10497;SDS011;5296;51.060;13.750;2022-11-15T01:38:16;32.88;;;26.33;;
10497;SDS011;5296;51.060;13.750;2022-11-15T01:43:36;32.70;;;27.33;;
10497;SDS011;5296;51.060;13.750;2022-11-15T01:48:57;30.15;;;26.83;;
10497;SDS011;5296;51.060;13.750;2022-11-15T01:54:20;33.15;;;26.75;;
10497;SDS011;5296;51.060;13.750;2022-11-15T01:59:42;34.47;;;27.35;;
10497;SDS011;5296;51.060;13.750;2022-11-15T02:05:03;32.35;;;27.15;;
10497;SDS011;5296;51.060;13.750;2022-11-15T02:10:24;31.63;;;26.83;;
10497;SDS011;5296;51.060;13.750;2022-11-15T02:21:59;35.20;;;27.42;;
10497;SDS011;5296;51.060;13.750;2022-11-15T02:33:35;30.90;;;25.85;;
10497;SDS011;5296;51.060;13.750;2022-11-15T02:44:49;30.30;;;25.52;;
10497;SDS011;5296;51.060;13.750;2022-11-15T02:50:11;30.23;;;24.45;;
10497;SDS011;5296;51.060;13.750;2022-11-15T02:55:37;30.23;;;24.35;;
10497;SDS011;5296;51.060;13.750;2022-11-15T03:01:00;32.47;;;26.20;;
10497;SDS011;5296;51.060;13.750;2022-11-15T03:11:44;32.13;;;25.45;;
10497;SDS011;5296;51.060;13.750;2022-11-15T03:17:16;29.40;;;23.85;;
10497;SDS011;5296;51.060;13.750;2022-11-15T03:22:42;32.35;;;26.05;;
10497;SDS011;5296;51.060;13.750;2022-11-15T03:28:04;31.02;;;25.35;;
10497;SDS011;5296;51.060;13.750;2022-11-15T03:33:25;29.88;;;24.50;;
10497;SDS011;5296;51.060;13.750;2022-11-15T03:38:47;30.35;;;25.20;;
10497;SDS011;5296;51.060;13.750;2022-11-15T03:44:16;28.90;;;24.48;;
10497;SDS011;5296;51.060;13.750;2022-11-15T03:50:02;30.45;;;24.75;;
10497;SDS011;5296;51.060;13.750;2022-11-15T03:55:44;30.88;;;24.48;;
10497;SDS011;5296;51.060;13.750;2022-11-15T04:01:04;29.90;;;23.90;;
10497;SDS011;5296;51.060;13.750;2022-11-15T04:06:24;29.38;;;23.35;;
10497;SDS011;5296;51.060;13.750;2022-11-15T04:11:44;28.73;;;24.13;;
10497;SDS011;5296;51.060;13.750;2022-11-15T04:17:04;30.85;;;23.10;;
10497;SDS011;5296;51.060;13.750;2022-11-15T04:22:25;30.52;;;24.42;;
10497;SDS011;5296;51.060;13.750;2022-11-15T04:28:03;28.15;;;23.38;;
10497;SDS011;5296;51.060;13.750;2022-11-15T04:33:24;28.58;;;22.27;;
10497;SDS011;5296;51.060;13.750;2022-11-15T04:38:44;27.58;;;22.65;;
10497;SDS011;5296;51.060;13.750;2022-11-15T04:44:04;27.75;;;22.23;;
10497;SDS011;5296;51.060;13.750;2022-11-15T04:49:24;25.55;;;21.38;;
10497;SDS011;5296;51.060;13.750;2022-11-15T04:54:44;27.75;;;22.90;;
10497;SDS011;5296;51.060;13.750;2022-11-15T05:00:05;30.13;;;22.77;;
10497;SDS011;5296;51.060;13.750;2022-11-15T05:05:27;31.50;;;23.58;;
10497;SDS011;5296;51.060;13.750;2022-11-15T05:10:47;26.52;;;22.15;;
10497;SDS011;5296;51.060;13.750;2022-11-15T05:16:07;29.50;;;23.20;;
10497;SDS011;5296;51.060;13.750;2022-11-15T05:21:27;27.33;;;22.17;;
10497;SDS011;5296;51.060;13.750;2022-11-15T05:26:47;28.00;;;23.20;;
10497;SDS011;5296;51.060;13.750;2022-11-15T05:32:08;29.27;;;23.60;;
10497;SDS011;5296;51.060;13.750;2022-11-15T05:37:29;28.67;;;22.38;;
10497;SDS011;5296;51.060;13.750;2022-11-15T05:42:50;29.20;;;22.55;;
10497;SDS011;5296;51.060;13.750;2022-11-15T05:48:10;26.13;;;20.70;;
10497;SDS011;5296;51.060;13.750;2022-11-15T05:53:30;29.80;;;22.42;;
10497;SDS011;5296;51.060;13.750;2022-11-15T05:58:52;28.13;;;22.83;;
10497;SDS011;5296;51.060;13.750;2022-11-15T06:04:18;27.60;;;22.25;;
10497;SDS011;5296;51.060;13.750;2022-11-15T06:09:38;27.40;;;22.10;;
10497;SDS011;5296;51.060;13.750;2022-11-15T06:14:58;27.02;;;21.85;;
10497;SDS011;5296;51.060;13.750;2022-11-15T06:20:19;26.73;;;21.85;;
10497;SDS011;5296;51.060;13.750;2022-11-15T06:25:39;26.60;;;21.25;;
10497;SDS011;5296;51.060;13.750;2022-11-15T06:31:05;24.98;;;20.50;;
10497;SDS011;5296;51.060;13.750;2022-11-15T06:36:26;28.25;;;21.83;;
10497;SDS011;5296;51.060;13.750;2022-11-15T06:41:46;26.17;;;20.70;;
10497;SDS011;5296;51.060;13.750;2022-11-15T06:47:06;28.50;;;21.30;;
10497;SDS011;5296;51.060;13.750;2022-11-15T06:52:27;25.73;;;20.05;;
10497;SDS011;5296;51.060;13.750;2022-11-15T06:57:52;27.00;;;21.30;;
10497;SDS011;5296;51.060;13.750;2022-11-15T07:03:12;29.38;;;21.02;;
10497;SDS011;5296;51.060;13.750;2022-11-15T07:08:33;24.73;;;19.92;;
10497;SDS011;5296;51.060;13.750;2022-11-15T07:13:53;24.17;;;18.90;;
10497;SDS011;5296;51.060;13.750;2022-11-15T07:19:14;27.35;;;19.45;;
10497;SDS011;5296;51.060;13.750;2022-11-15T07:24:34;24.98;;;19.67;;
10497;SDS011;5296;51.060;13.750;2022-11-15T07:29:54;29.15;;;21.20;;
10497;SDS011;5296;51.060;13.750;2022-11-15T07:35:14;26.45;;;20.98;;
10497;SDS011;5296;51.060;13.750;2022-11-15T07:40:34;25.02;;;19.65;;
10497;SDS011;5296;51.060;13.750;2022-11-15T07:45:55;27.15;;;21.40;;
10497;SDS011;5296;51.060;13.750;2022-11-15T07:51:18;25.15;;;20.00;;
10497;SDS011;5296;51.060;13.750;2022-11-15T07:56:39;26.58;;;20.48;;
10497;SDS011;5296;51.060;13.750;2022-11-15T08:01:59;27.50;;;21.05;;
10497;SDS011;5296;51.060;13.750;2022-11-15T08:07:19;28.23;;;20.58;;
10497;SDS011;5296;51.060;13.750;2022-11-15T08:12:39;27.50;;;20.00;;
10497;SDS011;5296;51.060;13.750;2022-11-15T08:18:01;23.63;;;18.88;;
10497;SDS011;5296;51.060;13.750;2022-11-15T08:23:23;23.35;;;18.38;;
10497;SDS011;5296;51.060;13.750;2022-11-15T08:28:43;22.52;;;18.42;;
10497;SDS011;5296;51.060;13.750;2022-11-15T08:34:03;26.70;;;19.23;;
10497;SDS011;5296;51.060;13.750;2022-11-15T08:39:24;22.17;;;18.17;;
10497;SDS011;5296;51.060;13.750;2022-11-15T08:44:44;23.88;;;18.05;;
10497;SDS011;5296;51.060;13.750;2022-11-15T08:50:04;22.02;;;18.35;;
10497;SDS011;5296;51.060;13.750;2022-11-15T08:55:25;23.60;;;18.50;;
10497;SDS011;5296;51.060;13.750;2022-11-15T09:00:45;21.50;;;17.63;;
10497;SDS011;5296;51.060;13.750;2022-11-15T09:06:05;21.98;;;17.50;;
10497;SDS011;5296;51.060;13.750;2022-11-15T09:11:26;21.52;;;17.83;;
10497;SDS011;5296;51.060;13.750;2022-11-15T09:16:46;21.05;;;16.63;;
10497;SDS011;5296;51.060;13.750;2022-11-15T09:22:07;21.52;;;17.58;;
10497;SDS011;5296;51.060;13.750;2022-11-15T09:27:28;23.40;;;18.35;;
10497;SDS011;5296;51.060;13.750;2022-11-15T09:32:48;21.85;;;17.85;;
10497;SDS011;5296;51.060;13.750;2022-11-15T09:38:09;22.83;;;18.88;;
10497;SDS011;5296;51.060;13.750;2022-11-15T09:54:11;21.58;;;17.35;;
10497;SDS011;5296;51.060;13.750;2022-11-15T10:05:22;19.60;;;15.82;;
10497;SDS011;5296;51.060;13.750;2022-11-15T10:15:38;19.30;;;15.82;;
10497;SDS011;5296;51.060;13.750;2022-11-15T10:20:46;19.48;;;15.70;;
10497;SDS011;5296;51.060;13.750;2022-11-15T10:25:55;20.52;;;15.80;;
10497;SDS011;5296;51.060;13.750;2022-11-15T10:31:20;19.02;;;15.80;;
10497;SDS011;5296;51.060;13.750;2022-11-15T10:36:27;19.08;;;15.95;;
10497;SDS011;5296;51.060;13.750;2022-11-15T10:41:31;19.85;;;15.20;;
10497;SDS011;5296;51.060;13.750;2022-11-15T10:46:36;19.15;;;15.60;;
10497;SDS011;5296;51.060;13.750;2022-11-15T10:51:48;18.35;;;14.98;;
10497;SDS011;5296;51.060;13.750;2022-11-15T10:56:51;19.08;;;15.25;;
10497;SDS011;5296;51.060;13.750;2022-11-15T11:01:55;20.65;;;15.68;;
10497;SDS011;5296;51.060;13.750;2022-11-15T11:06:57;17.85;;;14.70;;
10497;SDS011;5296;51.060;13.750;2022-11-15T11:12:01;21.83;;;15.73;;
10497;SDS011;5296;51.060;13.750;2022-11-15T11:27:55;17.10;;;13.85;;
10497;SDS011;5296;51.060;13.750;2022-11-15T11:48:53;17.20;;;14.32;;
10497;SDS011;5296;51.060;13.750;2022-11-15T11:59:21;16.70;;;13.77;;
10497;SDS011;5296;51.060;13.750;2022-11-15T12:04:40;19.08;;;15.40;;
10497;SDS011;5296;51.060;13.750;2022-11-15T12:15:03;17.15;;;14.52;;
10497;SDS011;5296;51.060;13.750;2022-11-15T12:20:15;18.42;;;14.85;;
10497;SDS011;5296;51.060;13.750;2022-11-15T12:30:50;20.73;;;14.52;;
10497;SDS011;5296;51.060;13.750;2022-11-15T12:35:58;18.80;;;14.75;;
10497;SDS011;5296;51.060;13.750;2022-11-15T12:52:08;18.98;;;14.18;;
10497;SDS011;5296;51.060;13.750;2022-11-15T12:56:45;17.90;;;14.32;;
10497;SDS011;5296;51.060;13.750;2022-11-15T13:06:49;17.40;;;14.77;;
10497;SDS011;5296;51.060;13.750;2022-11-15T13:11:59;18.13;;;14.55;;
10497;SDS011;5296;51.060;13.750;2022-11-15T13:28:01;16.95;;;14.10;;
10497;SDS011;5296;51.060;13.750;2022-11-15T13:33:21;20.67;;;14.82;;
10497;SDS011;5296;51.060;13.750;2022-11-15T13:43:29;20.23;;;14.30;;
10497;SDS011;5296;51.060;13.750;2022-11-15T13:48:36;15.85;;;14.00;;
10497;SDS011;5296;51.060;13.750;2022-11-15T13:53:39;17.75;;;13.85;;
10497;SDS011;5296;51.060;13.750;2022-11-15T13:58:43;17.35;;;14.80;;
10497;SDS011;5296;51.060;13.750;2022-11-15T14:03:49;19.88;;;15.07;;
10497;SDS011;5296;51.060;13.750;2022-11-15T14:14:13;16.88;;;14.20;;
10497;SDS011;5296;51.060;13.750;2022-11-15T14:24:21;17.80;;;14.25;;
10497;SDS011;5296;51.060;13.750;2022-11-15T14:34:25;20.00;;;15.07;;
10497;SDS011;5296;51.060;13.750;2022-11-15T14:39:26;19.10;;;14.90;;
10497;SDS011;5296;51.060;13.750;2022-11-15T14:44:28;16.90;;;13.88;;
10497;SDS011;5296;51.060;13.750;2022-11-15T14:49:29;19.15;;;14.45;;
10497;SDS011;5296;51.060;13.750;2022-11-15T14:54:31;17.23;;;14.23;;
10497;SDS011;5296;51.060;13.750;2022-11-15T14:59:32;18.13;;;15.10;;
10497;SDS011;5296;51.060;13.750;2022-11-15T15:04:34;18.35;;;15.35;;
10497;SDS011;5296;51.060;13.750;2022-11-15T15:09:36;16.77;;;14.40;;
10497;SDS011;5296;51.060;13.750;2022-11-15T15:14:37;18.02;;;14.07;;
10497;SDS011;5296;51.060;13.750;2022-11-15T15:19:39;17.02;;;14.15;;
10497;SDS011;5296;51.060;13.750;2022-11-15T15:24:41;17.38;;;14.88;;
10497;SDS011;5296;51.060;13.750;2022-11-15T15:29:43;19.48;;;14.70;;
10497;SDS011;5296;51.060;13.750;2022-11-15T15:34:45;17.73;;;14.20;;
10497;SDS011;5296;51.060;13.750;2022-11-15T15:39:46;18.17;;;15.15;;
10497;SDS011;5296;51.060;13.750;2022-11-15T15:44:48;18.40;;;14.80;;
10497;SDS011;5296;51.060;13.750;2022-11-15T15:49:50;18.63;;;15.57;;
10497;SDS011;5296;51.060;13.750;2022-11-15T15:54:52;19.00;;;14.98;;
10497;SDS011;5296;51.060;13.750;2022-11-15T15:59:54;17.10;;;14.50;;
10497;SDS011;5296;51.060;13.750;2022-11-15T16:04:55;20.10;;;15.80;;
10497;SDS011;5296;51.060;13.750;2022-11-15T16:09:57;17.70;;;14.38;;
10497;SDS011;5296;51.060;13.750;2022-11-15T16:15:02;17.90;;;15.32;;
10497;SDS011;5296;51.060;13.750;2022-11-15T16:20:05;21.02;;;15.98;;
10497;SDS011;5296;51.060;13.750;2022-11-15T16:25:08;19.17;;;16.33;;
10497;SDS011;5296;51.060;13.750;2022-11-15T16:30:12;19.45;;;16.15;;
10497;SDS011;5296;51.060;13.750;2022-11-15T16:35:17;20.23;;;15.73;;
10497;SDS011;5296;51.060;13.750;2022-11-15T16:40:27;20.20;;;15.98;;
10497;SDS011;5296;51.060;13.750;2022-11-15T16:45:33;19.88;;;16.15;;
10497;SDS011;5296;51.060;13.750;2022-11-15T16:50:35;18.63;;;15.25;;
10497;SDS011;5296;51.060;13.750;2022-11-15T16:55:42;20.10;;;15.30;;
10497;SDS011;5296;51.060;13.750;2022-11-15T17:00:43;21.30;;;16.17;;
10497;SDS011;5296;51.060;13.750;2022-11-15T17:05:46;18.42;;;14.85;;
10497;SDS011;5296;51.060;13.750;2022-11-15T17:10:48;18.27;;;14.68;;
10497;SDS011;5296;51.060;13.750;2022-11-15T17:15:49;17.67;;;14.82;;
10497;SDS011;5296;51.060;13.750;2022-11-15T17:20:51;20.63;;;15.10;;
10497;SDS011;5296;51.060;13.750;2022-11-15T17:25:59;18.00;;;15.23;;
10497;SDS011;5296;51.060;13.750;2022-11-15T17:31:25;20.70;;;15.73;;
10497;SDS011;5296;51.060;13.750;2022-11-15T17:36:27;20.58;;;15.95;;
10497;SDS011;5296;51.060;13.750;2022-11-15T17:41:29;17.75;;;15.18;;
10497;SDS011;5296;51.060;13.750;2022-11-15T17:46:31;19.25;;;15.00;;
10497;SDS011;5296;51.060;13.750;2022-11-15T17:51:34;19.15;;;15.20;;
10497;SDS011;5296;51.060;13.750;2022-11-15T17:56:37;20.25;;;16.00;;
10497;SDS011;5296;51.060;13.750;2022-11-15T18:01:43;19.30;;;15.15;;
10497;SDS011;5296;51.060;13.750;2022-11-15T18:06:45;18.27;;;15.40;;
10497;SDS011;5296;51.060;13.750;2022-11-15T18:11:47;18.40;;;14.48;;
10497;SDS011;5296;51.060;13.750;2022-11-15T18:16:51;19.02;;;14.80;;
10497;SDS011;5296;51.060;13.750;2022-11-15T18:21:55;18.75;;;14.85;;
10497;SDS011;5296;51.060;13.750;2022-11-15T18:26:57;19.67;;;14.82;;
10497;SDS011;5296;51.060;13.750;2022-11-15T18:32:00;16.08;;;13.80;;
10497;SDS011;5296;51.060;13.750;2022-11-15T18:37:05;19.65;;;14.30;;
10497;SDS011;5296;51.060;13.750;2022-11-15T18:42:07;17.52;;;13.65;;
10497;SDS011;5296;51.060;13.750;2022-11-15T18:47:08;15.55;;;13.10;;
10497;SDS011;5296;51.060;13.750;2022-11-15T18:52:10;17.17;;;13.13;;
10497;SDS011;5296;51.060;13.750;2022-11-15T18:57:12;16.13;;;13.20;;
10497;SDS011;5296;51.060;13.750;2022-11-15T19:02:13;16.65;;;14.10;;
10497;SDS011;5296;51.060;13.750;2022-11-15T19:07:15;16.48;;;13.52;;
10497;SDS011;5296;51.060;13.750;2022-11-15T19:12:17;16.30;;;12.82;;
10497;SDS011;5296;51.060;13.750;2022-11-15T19:17:18;14.98;;;12.00;;
10497;SDS011;5296;51.060;13.750;2022-11-15T19:22:20;16.88;;;12.85;;
10497;SDS011;5296;51.060;13.750;2022-11-15T19:27:22;16.80;;;14.80;;
10497;SDS011;5296;51.060;13.750;2022-11-15T19:32:23;14.68;;;11.95;;
10497;SDS011;5296;51.060;13.750;2022-11-15T19:37:25;15.80;;;12.25;;
10497;SDS011;5296;51.060;13.750;2022-11-15T19:42:26;14.68;;;11.57;;
10497;SDS011;5296;51.060;13.750;2022-11-15T19:47:28;12.95;;;10.80;;
10497;SDS011;5296;51.060;13.750;2022-11-15T19:52:30;13.48;;;11.20;;
10497;SDS011;5296;51.060;13.750;2022-11-15T19:57:32;14.52;;;11.20;;
10497;SDS011;5296;51.060;13.750;2022-11-15T20:02:33;12.93;;;10.90;;
10497;SDS011;5296;51.060;13.750;2022-11-15T20:07:35;12.60;;;11.27;;
10497;SDS011;5296;51.060;13.750;2022-11-15T20:12:37;11.50;;;9.75;;
10497;SDS011;5296;51.060;13.750;2022-11-15T20:17:39;11.50;;;9.73;;
10497;SDS011;5296;51.060;13.750;2022-11-15T20:22:40;11.55;;;9.45;;
10497;SDS011;5296;51.060;13.750;2022-11-15T20:27:42;11.40;;;10.20;;
10497;SDS011;5296;51.060;13.750;2022-11-15T20:32:44;14.85;;;10.35;;
10497;SDS011;5296;51.060;13.750;2022-11-15T20:37:46;12.10;;;10.27;;
10497;SDS011;5296;51.060;13.750;2022-11-15T20:42:51;13.00;;;10.38;;
10497;SDS011;5296;51.060;13.750;2022-11-15T20:47:54;11.90;;;10.10;;
10497;SDS011;5296;51.060;13.750;2022-11-15T20:52:56;12.88;;;10.65;;
10497;SDS011;5296;51.060;13.750;2022-11-15T20:57:58;12.13;;;10.37;;
10497;SDS011;5296;51.060;13.750;2022-11-15T21:03:00;13.95;;;10.88;;
10497;SDS011;5296;51.060;13.750;2022-11-15T21:08:01;10.50;;;9.07;;
10497;SDS011;5296;51.060;13.750;2022-11-15T21:13:03;12.00;;;9.95;;
10497;SDS011;5296;51.060;13.750;2022-11-15T21:18:05;11.90;;;9.80;;
10497;SDS011;5296;51.060;13.750;2022-11-15T21:23:06;10.10;;;9.10;;
10497;SDS011;5296;51.060;13.750;2022-11-15T21:28:08;10.50;;;9.07;;
10497;SDS011;5296;51.060;13.750;2022-11-15T21:33:10;10.85;;;9.65;;
10497;SDS011;5296;51.060;13.750;2022-11-15T21:38:11;9.88;;;8.52;;
10497;SDS011;5296;51.060;13.750;2022-11-15T21:43:13;10.25;;;8.40;;
10497;SDS011;5296;51.060;13.750;2022-11-15T21:48:15;10.35;;;8.93;;
10497;SDS011;5296;51.060;13.750;2022-11-15T21:53:17;9.93;;;8.63;;
10497;SDS011;5296;51.060;13.750;2022-11-15T21:58:18;9.88;;;8.43;;
10497;SDS011;5296;51.060;13.750;2022-11-15T22:03:21;10.32;;;8.50;;
10497;SDS011;5296;51.060;13.750;2022-11-15T22:08:23;10.18;;;8.93;;
10497;SDS011;5296;51.060;13.750;2022-11-15T22:13:25;9.90;;;8.32;;
10497;SDS011;5296;51.060;13.750;2022-11-15T22:18:27;9.40;;;8.40;;
10497;SDS011;5296;51.060;13.750;2022-11-15T22:23:30;10.70;;;8.57;;
10497;SDS011;5296;51.060;13.750;2022-11-15T22:28:33;10.63;;;8.50;;
10497;SDS011;5296;51.060;13.750;2022-11-15T22:33:35;10.05;;;8.90;;
10497;SDS011;5296;51.060;13.750;2022-11-15T22:38:37;8.32;;;7.43;;
10497;SDS011;5296;51.060;13.750;2022-11-15T22:43:38;8.48;;;7.57;;
10497;SDS011;5296;51.060;13.750;2022-11-15T22:48:40;9.13;;;7.97;;
10497;SDS011;5296;51.060;13.750;2022-11-15T22:53:41;8.30;;;7.38;;
10497;SDS011;5296;51.060;13.750;2022-11-15T22:58:43;12.53;;;7.60;;
10497;SDS011;5296;51.060;13.750;2022-11-15T23:03:44;9.13;;;7.72;;
10497;SDS011;5296;51.060;13.750;2022-11-15T23:08:46;8.77;;;7.10;;
10497;SDS011;5296;51.060;13.750;2022-11-15T23:13:51;7.90;;;7.10;;
10497;SDS011;5296;51.060;13.750;2022-11-15T23:18:54;7.82;;;7.03;;
10497;SDS011;5296;51.060;13.750;2022-11-15T23:23:57;7.97;;;6.53;;
10497;SDS011;5296;51.060;13.750;2022-11-15T23:28:58;8.52;;;7.18;;
10497;SDS011;5296;51.060;13.750;2022-11-15T23:34:00;7.85;;;7.05;;
10497;SDS011;5296;51.060;13.750;2022-11-15T23:39:02;8.45;;;6.65;;
10497;SDS011;5296;51.060;13.750;2022-11-15T23:44:04;7.82;;;7.03;;
10497;SDS011;5296;51.060;13.750;2022-11-15T23:49:05;10.40;;;8.68;;
10497;SDS011;5296;51.060;13.750;2022-11-15T23:54:07;7.95;;;7.10;;
10497;SDS011;5296;51.060;13.750;2022-11-15T23:59:09;7.32;;;6.57;;
